Time;durP1;ratioP1;P1;durP2;ratioP2;P2;SDS_P1;SDS_P2;PMS_P1;PMS_P2;Temp;Humidity;BMP_temperature;BMP_pressure;BME280_temperature;BME280_humidity;BME280_pressure;Samples;Min_cycle;Max_cycle;Signal;HPM_P1;HPM_P2
2023/03/09 00:10:03;;;;;;;15.40;11.50;;;;;;;-0.24;64.57;97932.56;20901940;28;20219;-84
2023/03/09 00:20:15;;;;;;;14.57;11.13;;;;;;;0.05;63.42;97926.31;20977714;28;20269;-82
2023/03/09 00:30:18;;;;;;;13.73;10.73;;;;;;;0.18;62.88;97923.31;20987879;28;20196;-82
2023/03/09 00:40:20;;;;;;;13.70;10.33;;;;;;;-0.14;64.39;97940.53;20956430;28;20281;-83
2023/03/09 00:50:22;;;;;;;15.33;11.97;;;;;;;-0.18;64.67;97951.50;20995952;28;20224;-83
2023/03/09 01:00:25;;;;;;;15.77;11.20;;;;;;;-0.20;64.04;97962.09;20972186;28;20262;-84
2023/03/09 01:10:28;;;;;;;15.17;11.63;;;;;;;0.05;63.74;97965.97;20959042;28;20689;-84
2023/03/09 01:20:31;;;;;;;13.73;10.67;;;;;;;-0.08;63.83;97969.75;20938667;28;20273;-84
2023/03/09 01:30:33;;;;;;;14.63;11.80;;;;;;;0.18;63.46;97967.72;20949942;28;20257;-84
2023/03/09 01:40:36;;;;;;;15.30;11.77;;;;;;;-0.13;65.00;97967.13;20967584;28;20270;-83
2023/03/09 01:50:38;;;;;;;19.13;13.53;;;;;;;0.09;64.39;97985.53;20926509;28;20226;-83
2023/03/09 02:00:44;;;;;;;19.63;14.70;;;;;;;-0.70;66.33;98022.72;20917711;28;20269;-83
2023/03/09 02:10:51;;;;;;;23.57;16.73;;;;;;;-0.44;66.08;98023.59;20929164;28;20509;-83
2023/03/09 02:21:13;;;;;;;26.27;18.00;;;;;;;0.07;63.99;98035.81;20888611;28;20212;-83
2023/03/09 02:31:16;;;;;;;24.83;17.23;;;;;;;0.32;62.64;98054.34;20943326;28;20187;-83
2023/03/09 02:41:19;;;;;;;23.63;16.47;;;;;;;0.41;63.91;98075.72;20866325;28;20301;-83
2023/03/09 02:51:21;;;;;;;25.10;17.33;;;;;;;0.19;63.51;98074.78;20903707;28;20488;-84
2023/03/09 03:01:24;;;;;;;27.10;17.93;;;;;;;0.34;63.21;98075.41;20949459;28;20628;-83
2023/03/09 03:11:26;;;;;;;24.83;17.43;;;;;;;0.25;63.08;98109.53;20901244;28;20508;-83
2023/03/09 03:21:30;;;;;;;23.80;16.13;;;;;;;0.40;63.05;98132.34;20890872;28;20694;-83
2023/03/09 03:31:34;;;;;;;25.13;16.80;;;;;;;0.41;62.43;98125.66;20876341;28;20196;-83
2023/03/09 03:41:37;;;;;;;29.13;19.60;;;;;;;0.47;62.88;98149.34;20918141;28;20282;-83
2023/03/09 03:51:42;;;;;;;31.77;20.73;;;;;;;0.45;63.15;98165.50;20894085;28;20184;-84
2023/03/09 04:01:45;;;;;;;29.60;19.33;;;;;;;0.34;63.26;98175.31;20913336;28;20223;-84
2023/03/09 04:11:49;;;;;;;30.37;19.23;;;;;;;0.26;63.80;98180.53;20882916;28;20270;-84
2023/03/09 04:21:52;;;;;;;28.87;19.17;;;;;;;0.41;62.93;98218.09;20847593;28;20278;-84
2023/03/09 04:31:55;;;;;;;31.03;18.93;;;;;;;0.18;63.63;98228.53;20911296;28;20188;-83
2023/03/09 04:41:57;;;;;;;38.13;21.67;;;;;;;0.38;62.84;98240.13;20948290;28;20520;-83
2023/03/09 04:52:01;;;;;;;35.17;20.37;;;;;;;0.31;63.27;98255.31;20911179;28;20249;-83
2023/03/09 05:02:03;;;;;;;37.40;22.37;;;;;;;0.07;64.66;98260.50;20933841;28;20216;-83
2023/03/09 05:12:14;;;;;;;37.73;21.53;;;;;;;0.28;63.69;98278.16;20909388;28;20264;-84
2023/03/09 05:22:18;;;;;;;45.87;23.23;;;;;;;-0.16;64.82;98300.53;20936618;28;20242;-82
2023/03/09 05:32:21;;;;;;;44.23;25.90;;;;;;;0.25;63.79;98314.03;20899524;28;20195;-84
2023/03/09 05:42:23;;;;;;;48.93;25.17;;;;;;;-0.27;65.67;98324.97;20925311;28;20818;-83
2023/03/09 05:52:26;;;;;;;45.10;24.23;;;;;;;0.32;63.84;98344.94;20876759;28;20478;-83
2023/03/09 06:02:30;;;;;;;50.33;25.20;;;;;;;0.02;63.93;98379.91;20864319;28;20517;-84
2023/03/09 06:12:33;;;;;;;59.17;27.60;;;;;;;0.36;63.23;98390.31;20908716;28;20289;-83
2023/03/09 06:22:36;;;;;;;58.30;26.80;;;;;;;-0.47;66.22;98390.09;20887155;28;20249;-82
2023/03/09 06:32:44;;;;;;;64.90;28.53;;;;;;;0.35;63.33;98394.22;20887707;28;20196;-82
2023/03/09 06:42:51;;;;;;;72.20;28.07;;;;;;;0.31;63.57;98402.41;20873799;28;20275;-81
2023/03/09 06:52:54;;;;;;;63.53;27.47;;;;;;;-0.07;64.75;98407.63;20888958;28;20269;-81
2023/03/09 07:02:56;;;;;;;54.63;27.17;;;;;;;-0.09;66.03;98400.75;20919373;28;20215;-80
2023/03/09 07:12:59;;;;;;;64.20;29.83;;;;;;;0.28;64.59;98414.13;20894740;28;20681;-81
2023/03/09 07:23:01;;;;;;;58.00;28.27;;;;;;;0.12;64.63;98445.38;20922355;28;20200;-80
2023/03/09 07:33:03;;;;;;;57.00;27.67;;;;;;;0.36;64.53;98468.03;20912519;28;20244;-81
2023/03/09 07:43:06;;;;;;;52.00;25.03;;;;;;;0.77;63.03;98484.34;20896719;28;20231;-82
2023/03/09 07:53:17;;;;;;;52.60;26.37;;;;;;;0.72;63.24;98515.06;20884086;28;20195;-82
2023/03/09 08:03:19;;;;;;;53.97;27.33;;;;;;;0.68;64.12;98514.88;20898838;28;20219;-82
2023/03/09 08:13:22;;;;;;;64.20;28.17;;;;;;;-0.02;65.46;98539.78;20916081;28;20265;-82
2023/03/09 08:23:24;;;;;;;64.93;30.30;;;;;;;0.47;65.63;98535.22;20909849;28;20272;-83
2023/03/09 08:33:26;;;;;;;66.43;29.23;;;;;;;-0.01;66.64;98571.94;20875706;28;20593;-82
2023/03/09 08:43:28;;;;;;;64.73;29.07;;;;;;;0.67;64.19;98574.31;20878061;28;20518;-82
2023/03/09 08:53:30;;;;;;;60.03;29.90;;;;;;;0.31;66.13;98602.22;20917360;28;20321;-82
2023/03/09 09:03:32;;;;;;;58.80;26.53;;;;;;;0.50;64.95;98612.28;20931170;28;20296;-83
2023/03/09 09:13:36;;;;;;;60.23;29.50;;;;;;;0.89;63.42;98637.34;20931595;28;20204;-83
2023/03/09 09:23:40;;;;;;;65.70;27.97;;;;;;;0.64;64.15;98646.34;20923849;28;20212;-81
2023/03/09 09:33:42;;;;;;;57.53;27.33;;;;;;;1.51;61.47;98647.59;20931245;28;20192;-82
2023/03/09 09:43:47;;;;;;;60.50;27.40;;;;;;;1.38;61.47;98663.25;20876534;28;20219;-82
2023/03/09 09:53:58;;;;;;;59.00;27.27;;;;;;;0.67;65.73;98677.09;20909619;28;20196;-83
2023/03/09 10:04:04;;;;;;;48.23;23.30;;;;;;;1.01;65.26;98670.88;20919075;28;20532;-82
2023/03/09 10:14:16;;;;;;;44.87;23.83;;;;;;;1.76;61.65;98693.28;20914613;28;20293;-84
2023/03/09 10:24:23;;;;;;;48.93;23.93;;;;;;;1.81;62.60;98713.41;20956836;28;20207;-84
2023/03/09 10:34:26;;;;;;;49.27;24.70;;;;;;;1.16;63.24;98699.41;20914627;28;20214;-81
2023/03/09 10:44:29;;;;;;;52.43;25.80;;;;;;;1.86;61.96;98704.13;20907622;28;20219;-83
2023/03/09 10:54:37;;;;;;;44.97;22.80;;;;;;;1.23;64.96;98731.22;20921770;28;20218;-84
2023/03/09 11:04:39;;;;;;;47.83;22.53;;;;;;;1.93;63.69;98743.41;20910103;28;20220;-84
2023/03/09 11:14:45;;;;;;;54.93;25.13;;;;;;;2.14;63.29;98766.72;20918555;28;20269;-83
2023/03/09 11:24:47;;;;;;;53.33;25.60;;;;;;;1.29;65.43;98773.56;20892233;28;20281;-84
2023/03/09 11:34:50;;;;;;;53.13;25.43;;;;;;;2.39;62.63;98762.34;20881841;28;20183;-82
2023/03/09 11:44:52;;;;;;;50.93;24.97;;;;;;;1.89;62.70;98764.69;20908887;28;20216;-83
2023/03/09 11:54:58;;;;;;;44.47;23.67;;;;;;;1.88;64.57;98749.13;20909862;28;20219;-82
2023/03/09 12:05:00;;;;;;;49.63;24.63;;;;;;;2.54;61.03;98755.47;20937056;28;20237;-83
2023/03/09 12:15:16;;;;;;;46.70;23.97;;;;;;;2.02;65.18;98763.75;20937998;28;20789;-82
2023/03/09 12:25:23;;;;;;;43.70;23.73;;;;;;;2.29;63.91;98749.56;20932538;28;20245;-83
2023/03/09 12:35:25;;;;;;;51.37;25.37;;;;;;;2.58;62.83;98748.06;20930270;28;20611;-84
2023/03/09 12:45:29;;;;;;;45.70;24.30;;;;;;;2.72;63.94;98741.19;20914751;28;20620;-82
2023/03/09 12:55:35;;;;;;;41.53;22.57;;;;;;;2.88;62.56;98715.63;20899810;28;20192;-83
2023/03/09 13:05:48;;;;;;;38.80;22.00;;;;;;;2.56;63.58;98700.22;20903619;28;20211;-83
2023/03/09 13:16:28;;;;;;;36.27;20.80;;;;;;;3.31;60.66;98690.44;20897508;28;20242;-81
2023/03/09 13:26:30;;;;;;;40.50;23.27;;;;;;;3.29;62.23;98703.88;20898422;28;20285;-83
2023/03/09 13:36:35;;;;;;;38.57;21.73;;;;;;;3.14;63.17;98700.50;20893964;28;20254;-85
2023/03/09 13:46:39;;;;;;;43.37;23.27;;;;;;;3.01;64.03;98701.50;20918375;28;20580;-81
2023/03/09 13:56:41;;;;;;;41.87;23.47;;;;;;;2.87;64.59;98683.34;20908265;28;20188;-81
2023/03/09 14:06:43;;;;;;;47.23;24.67;;;;;;;2.48;67.14;98696.31;20917829;28;20201;-81
2023/03/09 14:17:16;;;;;;;53.83;26.90;;;;;;;2.77;67.14;98656.66;20936902;28;20223;-80
2023/03/09 14:27:25;;;;;;;45.27;24.20;;;;;;;2.66;66.74;98649.75;20906561;28;20196;-80
2023/03/09 14:37:30;;;;;;;51.33;27.30;;;;;;;3.03;65.74;98657.41;20926251;28;20235;-79
2023/03/09 14:47:32;;;;;;;51.27;25.83;;;;;;;2.29;68.18;98652.09;20895163;28;20196;-80
2023/03/09 14:57:34;;;;;;;62.53;29.37;;;;;;;2.90;66.49;98638.09;20916316;28;20216;-79
2023/03/09 15:07:36;;;;;;;35.00;19.20;;;;;;;2.18;69.29;98650.75;20934607;28;20192;-80
2023/03/09 15:17:38;;;;;;;34.17;18.60;;;;;;;2.89;67.80;98603.81;20935944;28;20212;-82
2023/03/09 15:27:42;;;;;;;28.77;16.80;;;;;;;2.70;68.71;98583.84;20896446;28;20496;-83
2023/03/09 15:37:44;;;;;;;28.10;15.00;;;;;;;3.16;67.69;98563.53;20930706;28;20220;-83
2023/03/09 15:47:46;;;;;;;23.70;12.37;;;;;;;2.91;68.26;98545.78;20906550;28;20192;-83
2023/03/09 15:57:49;;;;;;;21.87;13.63;;;;;;;3.32;67.33;98527.53;20861232;28;20678;-83
2023/03/09 16:07:51;;;;;;;23.20;13.23;;;;;;;3.37;66.52;98516.16;20890476;28;20187;-83
2023/03/09 16:17:54;;;;;;;24.23;13.97;;;;;;;3.78;65.23;98510.59;20867206;28;20231;-80
2023/03/09 16:27:57;;;;;;;29.90;14.67;;;;;;;3.32;66.92;98494.06;20890651;28;20193;-81
2023/03/09 16:37:59;;;;;;;29.70;15.67;;;;;;;3.21;67.40;98515.09;20848401;28;20219;-80
2023/03/09 16:48:01;;;;;;;33.97;17.20;;;;;;;3.06;67.78;98503.41;20888223;28;20196;-80
2023/03/09 16:58:03;;;;;;;34.33;17.00;;;;;;;2.74;68.03;98509.59;20850482;28;20301;-80
2023/03/09 17:08:06;;;;;;;27.17;14.97;;;;;;;2.12;70.66;98498.19;20884125;28;20289;-80
2023/03/09 17:18:08;;;;;;;25.50;14.70;;;;;;;2.16;69.39;98507.50;20891091;28;20739;-81
2023/03/09 17:28:10;;;;;;;28.97;15.50;;;;;;;2.36;68.45;98518.75;20921102;28;20657;-82
2023/03/09 17:38:14;;;;;;;29.87;15.70;;;;;;;2.15;68.67;98503.91;20878121;28;20225;-82
2023/03/09 17:48:16;;;;;;;28.30;14.83;;;;;;;2.34;67.93;98490.41;20884038;28;20197;-83
2023/03/09 17:58:19;;;;;;;22.70;13.97;;;;;;;1.99;70.31;98475.78;20869459;28;20231;-83
2023/03/09 18:08:21;;;;;;;26.57;14.27;;;;;;;1.76;70.13;98465.19;20894081;28;20197;-83
2023/03/09 18:18:23;;;;;;;24.50;15.17;;;;;;;2.52;67.73;98443.84;20865604;28;20293;-83
2023/03/09 18:28:26;;;;;;;20.37;13.43;;;;;;;2.42;68.14;98422.72;20893130;28;20528;-83
2023/03/09 18:38:28;;;;;;;28.73;15.73;;;;;;;2.44;68.59;98408.47;20844789;28;20251;-82
2023/03/09 18:48:30;;;;;;;27.37;16.03;;;;;;;1.89;69.68;98397.41;20882466;28;20200;-81
2023/03/09 18:58:33;;;;;;;29.20;16.30;;;;;;;2.86;66.91;98359.25;20876464;28;20719;-81
2023/03/09 19:08:38;;;;;;;29.87;17.03;;;;;;;2.83;66.40;98340.41;20890061;28;20193;-82
2023/03/09 19:18:43;;;;;;;29.63;17.10;;;;;;;2.71;69.14;98321.63;20870411;28;20207;-82
2023/03/09 19:28:45;;;;;;;31.07;17.40;;;;;;;2.38;69.85;98310.38;20894127;28;20627;-80
2023/03/09 19:38:48;;;;;;;30.67;16.83;;;;;;;3.12;66.89;98279.00;20920942;28;20285;-83
2023/03/09 19:48:56;;;;;;;37.93;17.33;;;;;;;3.03;67.68;98263.53;20898802;28;20196;-82
2023/03/09 19:58:59;;;;;;;42.07;19.43;;;;;;;3.08;68.17;98241.00;20946381;28;20673;-83
2023/03/09 20:09:02;;;;;;;22.87;10.53;;;;;;;3.16;73.60;98217.81;20938591;28;20539;-85
2023/03/09 20:19:06;;;;;;;21.03;5.13;;;;;;;4.59;75.28;98196.97;20910408;28;20532;-81
2023/03/09 20:29:09;;;;;;;21.17;6.27;;;;;;;5.62;73.42;98171.03;20928889;28;20195;-81
2023/03/09 20:39:11;;;;;;;22.17;5.90;;;;;;;5.67;73.53;98133.56;20962046;28;20667;-81
2023/03/09 20:49:13;;;;;;;18.83;5.37;;;;;;;5.43;74.79;98123.34;20971452;28;20187;-82
2023/03/09 20:59:16;;;;;;;17.27;4.97;;;;;;;5.35;76.35;98099.16;20964199;28;20210;-84
2023/03/09 21:09:20;;;;;;;15.40;3.80;;;;;;;5.32;77.04;98079.09;20910299;28;20203;-84
2023/03/09 21:19:23;;;;;;;16.27;4.43;;;;;;;5.18;76.99;98063.94;20902321;28;20219;-82
2023/03/09 21:29:25;;;;;;;17.27;4.50;;;;;;;5.75;75.33;98045.75;20956392;28;20667;-82
2023/03/09 21:39:27;;;;;;;14.37;3.10;;;;;;;5.56;77.09;98022.13;20960481;28;20274;-83
2023/03/09 21:49:29;;;;;;;10.53;3.33;;;;;;;5.82;76.22;97979.50;20945341;28;20192;-82
2023/03/09 21:59:32;;;;;;;16.53;3.47;;;;;;;5.63;77.67;97968.31;20897140;28;20239;-81
2023/03/09 22:09:34;;;;;;;14.63;3.77;;;;;;;5.92;77.10;97956.56;20911952;28;20207;-82
2023/03/09 22:19:36;;;;;;;13.93;3.80;;;;;;;5.73;77.47;97945.34;20916540;28;20632;-81
2023/03/09 22:29:39;;;;;;;13.20;3.07;;;;;;;5.57;76.75;97945.41;20899263;28;20196;-82
2023/03/09 22:39:41;;;;;;;13.23;2.53;;;;;;;6.29;74.50;97914.84;20913105;28;20224;-82
2023/03/09 22:49:43;;;;;;;10.63;2.87;;;;;;;6.59;74.39;97898.16;20908520;28;20250;-81
2023/03/09 22:59:45;;;;;;;13.13;3.00;;;;;;;6.04;76.54;97865.97;20883178;28;20297;-82
2023/03/09 23:09:48;;;;;;;11.63;2.23;;;;;;;6.38;74.29;97838.94;20868478;28;20682;-79
2023/03/09 23:19:50;;;;;;;12.00;3.13;;;;;;;6.56;73.33;97814.84;20841767;28;20232;-82
2023/03/09 23:29:52;;;;;;;10.83;2.97;;;;;;;6.24;75.64;97788.25;20859608;28;20243;-82
2023/03/09 23:39:54;;;;;;;8.10;2.00;;;;;;;6.07;75.47;97766.34;20843012;28;20495;-83
2023/03/09 23:49:56;;;;;;;10.57;2.30;;;;;;;6.25;75.71;97723.44;20882157;28;20203;-81
2023/03/09 23:59:59;;;;;;;5.50;1.47;;;;;;;6.08;75.72;97714.75;20858883;28;20220;-79
